createdAt,value
2022-09-21T00:03:03.816Z,1.6
2022-09-21T00:10:36.095Z,1.6
2022-09-21T00:18:08.381Z,1.6
2022-09-21T00:25:40.651Z,1.6
2022-09-21T00:33:12.932Z,1.4
2022-09-21T00:40:45.218Z,1.4
2022-09-21T00:48:17.492Z,1.4
2022-09-21T00:55:49.853Z,1.4
2022-09-21T01:03:22.161Z,1.4
2022-09-21T01:10:54.444Z,1.4
2022-09-21T01:18:26.712Z,1.4
2022-09-21T01:25:58.986Z,1.4
2022-09-21T01:33:31.261Z,1.3
2022-09-21T01:41:03.536Z,1.3
2022-09-21T01:48:35.822Z,1.3
2022-09-21T01:56:08.101Z,1.3
2022-09-21T02:03:40.395Z,1.3
2022-09-21T02:11:12.665Z,1.3
2022-09-21T02:18:44.935Z,1.3
2022-09-21T02:26:17.210Z,1.5
2022-09-21T02:33:49.489Z,1.5
2022-09-21T02:41:21.772Z,1.5
2022-09-21T02:48:54.050Z,1.5
2022-09-21T02:56:26.334Z,1.5
2022-09-21T03:03:58.653Z,1.5
2022-09-21T03:11:30.928Z,1.5
2022-09-21T03:19:03.210Z,1.5
2022-09-21T03:26:35.495Z,1.7
2022-09-21T03:34:07.855Z,1.7
2022-09-21T03:41:40.176Z,1.7
2022-09-21T03:49:12.449Z,1.7
2022-09-21T03:56:44.743Z,1.7
2022-09-21T04:04:17.056Z,1.7
2022-09-21T04:11:49.330Z,1.7
2022-09-21T04:19:21.616Z,1.7
2022-09-21T04:22:21.100Z,1.8
2022-09-21T04:23:08.412Z,1.8
2022-09-21T04:23:55.684Z,1.8
2022-09-21T04:24:42.955Z,1.8
2022-09-21T04:25:30.481Z,1.8
2022-09-21T04:26:17.774Z,1.8
2022-09-21T04:27:05.060Z,1.8
2022-09-21T04:27:52.385Z,1.8
2022-09-21T04:28:39.672Z,1.8
2022-09-21T04:29:26.955Z,1.8
2022-09-21T04:30:14.268Z,1.8
2022-09-21T04:31:01.568Z,1.8
2022-09-21T04:31:48.880Z,1.8
2022-09-21T04:32:36.174Z,1.8
2022-09-21T04:33:23.452Z,1.8
2022-09-21T04:34:10.717Z,1.8
2022-09-21T04:34:57.996Z,1.8
2022-09-21T04:35:45.327Z,1.8
2022-09-21T04:36:36.469Z,1.8
2022-09-21T04:37:24.115Z,1.8
2022-09-21T04:38:11.547Z,1.8
2022-09-21T04:38:58.811Z,1.8
2022-09-21T04:39:46.083Z,1.8
2022-09-21T04:40:33.668Z,1.8
2022-09-21T04:41:20.981Z,1.8
2022-09-21T04:42:08.277Z,1.8
2022-09-21T04:42:55.689Z,1.8
2022-09-21T04:43:42.967Z,1.8
2022-09-21T04:44:30.234Z,1.8
2022-09-21T04:45:17.668Z,1.8
2022-09-21T04:46:04.960Z,1.8
2022-09-21T04:46:52.311Z,1.8
2022-09-21T04:47:39.694Z,1.8
2022-09-21T04:48:26.949Z,1.8
2022-09-21T04:49:14.213Z,1.8
2022-09-21T04:50:01.643Z,1.8
2022-09-21T04:50:49.065Z,1.8
2022-09-21T04:51:36.331Z,1.8
2022-09-21T04:52:23.789Z,1.8
2022-09-21T04:53:11.079Z,1.8
2022-09-21T04:53:58.394Z,1.8
2022-09-21T04:54:45.760Z,1.8
2022-09-21T04:55:33.044Z,1.8
2022-09-21T04:56:20.327Z,1.8
2022-09-21T04:57:07.761Z,1.8
2022-09-21T04:57:55.041Z,1.8
2022-09-21T04:58:42.310Z,1.8
2022-09-21T04:59:29.762Z,1.8
2022-09-21T05:00:17.067Z,1.8
2022-09-21T05:01:04.388Z,1.8
2022-09-21T05:01:51.814Z,1.8
2022-09-21T05:02:39.116Z,1.8
2022-09-21T05:03:26.407Z,1.8
2022-09-21T05:04:13.795Z,1.8
2022-09-21T05:05:01.097Z,1.8
2022-09-21T05:05:48.380Z,1.8
2022-09-21T05:06:35.814Z,1.8
2022-09-21T05:07:23.079Z,1.8
2022-09-21T05:08:10.450Z,1.8
2022-09-21T05:08:57.799Z,1.8
2022-09-21T05:09:45.059Z,1.8
2022-09-21T05:10:32.339Z,1.8
2022-09-21T05:11:19.729Z,1.8
2022-09-21T05:12:07.008Z,1.8
2022-09-21T05:12:54.317Z,1.8
2022-09-21T05:13:41.711Z,1.8
2022-09-21T05:14:29.165Z,1.8
2022-09-21T05:15:16.448Z,1.8
2022-09-21T05:16:04.319Z,1.8
2022-09-21T05:16:52.032Z,1.8
2022-09-21T05:17:39.309Z,1.8
2022-09-21T05:18:26.577Z,1.8
2022-09-21T05:19:14.009Z,1.8
2022-09-21T05:20:01.285Z,3.7
2022-09-21T05:20:48.597Z,3.7
2022-09-21T05:21:35.980Z,3.7
2022-09-21T05:22:23.241Z,3.7
2022-09-21T05:23:14.799Z,3.7
2022-09-21T05:24:03.960Z,3.7
2022-09-21T05:24:51.387Z,3.7
2022-09-21T05:25:38.659Z,3.7
2022-09-21T05:26:25.936Z,3.7
2022-09-21T05:27:13.331Z,3.7
2022-09-21T05:28:00.592Z,3.7
2022-09-21T05:28:47.852Z,3.7
2022-09-21T05:29:35.258Z,3.7
2022-09-21T05:30:22.513Z,3.7
2022-09-21T05:31:17.583Z,3.7
2022-09-21T05:32:05.500Z,3.7
2022-09-21T05:32:52.888Z,3.7
2022-09-21T05:33:40.152Z,3.7
2022-09-21T05:34:27.428Z,3.7
2022-09-21T05:35:14.820Z,3.7
2022-09-21T05:36:02.078Z,3.7
2022-09-21T05:36:49.361Z,3.7
2022-09-21T05:37:36.741Z,3.7
2022-09-21T05:38:24.009Z,3.7
2022-09-21T05:39:11.274Z,3.7
2022-09-21T05:39:58.860Z,3.7
2022-09-21T05:40:46.255Z,3.7
2022-09-21T05:41:33.515Z,3.7
2022-09-21T05:42:20.943Z,3.7
2022-09-21T05:43:08.205Z,3.7
2022-09-21T05:43:55.469Z,3.7
2022-09-21T05:44:42.893Z,3.7
2022-09-21T05:45:30.216Z,3.7
2022-09-21T05:46:17.498Z,3.7
2022-09-21T05:47:04.893Z,3.7
2022-09-21T05:47:52.184Z,3.7
2022-09-21T05:48:39.440Z,3.7
2022-09-21T05:49:26.877Z,3.7
2022-09-21T05:50:14.135Z,3.7
2022-09-21T05:51:01.409Z,3.7
2022-09-21T05:51:48.807Z,3.7
2022-09-21T05:52:36.069Z,3.7
2022-09-21T05:53:23.346Z,3.7
2022-09-21T05:54:10.748Z,3.7
2022-09-21T05:54:58.006Z,3.7
2022-09-21T05:55:45.437Z,3.7
2022-09-21T05:56:32.708Z,3.7
2022-09-21T05:57:19.973Z,3.7
2022-09-21T05:58:07.236Z,3.7
2022-09-21T05:58:54.753Z,3.7
2022-09-21T05:59:42.042Z,3.7
2022-09-21T06:00:29.347Z,3.7
2022-09-21T06:01:16.745Z,3.7
2022-09-21T06:02:04.123Z,3.7
2022-09-21T06:02:51.418Z,3.7
2022-09-21T06:03:38.816Z,3.7
2022-09-21T06:04:26.104Z,3.7
2022-09-21T06:05:13.369Z,3.7
2022-09-21T06:06:00.763Z,3.7
2022-09-21T06:06:48.047Z,3.7
2022-09-21T06:07:35.337Z,3.7
2022-09-21T06:08:22.732Z,3.7
2022-09-21T06:09:10.019Z,3.7
2022-09-21T06:09:57.444Z,3.7
2022-09-21T06:10:44.936Z,3.7
2022-09-21T06:11:32.229Z,3.7
2022-09-21T06:12:19.498Z,3.7
2022-09-21T06:13:06.903Z,3.7
2022-09-21T06:13:54.189Z,3.7
2022-09-21T06:14:41.466Z,3.7
2022-09-21T06:15:28.924Z,3.7
2022-09-21T06:16:16.266Z,3.7
2022-09-21T06:17:03.571Z,3.7
2022-09-21T06:17:51.004Z,3.7
2022-09-21T06:18:38.284Z,3.7
2022-09-21T06:19:25.553Z,4.7
2022-09-21T06:20:12.988Z,4.7
2022-09-21T06:21:00.279Z,4.7
2022-09-21T06:21:47.564Z,4.7
2022-09-21T06:22:34.993Z,4.7
2022-09-21T06:23:22.268Z,4.7
2022-09-21T06:24:09.562Z,4.7
2022-09-21T06:24:56.973Z,4.7
2022-09-21T06:25:44.250Z,4.7
2022-09-21T06:26:31.533Z,4.7
2022-09-21T06:27:18.940Z,4.7
2022-09-21T06:28:06.233Z,4.7
2022-09-21T06:28:53.502Z,4.7
2022-09-21T06:29:40.928Z,4.7
2022-09-21T06:30:28.280Z,4.7
2022-09-21T06:31:15.605Z,4.7
2022-09-21T06:32:03.048Z,4.7
2022-09-21T06:32:50.329Z,4.7
2022-09-21T06:33:37.621Z,4.7
2022-09-21T06:34:25.055Z,4.7
2022-09-21T06:35:12.340Z,4.7
2022-09-21T06:35:59.600Z,4.7
2022-09-21T06:36:47.059Z,4.7
2022-09-21T06:37:34.347Z,4.7
2022-09-21T06:38:21.629Z,4.7
2022-09-21T06:39:09.067Z,4.7
2022-09-21T06:39:56.368Z,4.7
2022-09-21T06:40:43.734Z,4.7
2022-09-21T06:41:31.166Z,4.7
2022-09-21T06:42:18.445Z,4.7
2022-09-21T06:43:05.960Z,4.7
2022-09-21T06:43:53.272Z,4.7
2022-09-21T06:44:40.726Z,4.7
2022-09-21T06:45:28.021Z,4.7
2022-09-21T06:46:15.539Z,4.7
2022-09-21T06:47:02.852Z,4.7
2022-09-21T06:47:50.119Z,4.7
2022-09-21T06:48:37.523Z,4.7
2022-09-21T06:49:24.779Z,4.7
2022-09-21T06:50:12.049Z,4.7
2022-09-21T06:50:59.471Z,4.7
2022-09-21T06:51:46.755Z,4.7
2022-09-21T06:52:34.040Z,4.7
2022-09-21T06:53:21.441Z,4.7
2022-09-21T06:54:08.725Z,4.7
2022-09-21T06:54:56.022Z,4.7
2022-09-21T06:55:43.320Z,4.7
2022-09-21T06:56:30.585Z,4.7
2022-09-21T06:57:17.963Z,4.7
2022-09-21T06:58:05.237Z,4.7
2022-09-21T06:58:52.526Z,4.7
2022-09-21T06:59:39.844Z,4.7
2022-09-21T07:00:27.122Z,4.7
2022-09-21T07:01:14.564Z,4.7
2022-09-21T07:02:02.003Z,4.7
2022-09-21T07:02:49.343Z,4.7
2022-09-21T07:03:36.616Z,4.7
2022-09-21T07:04:25.260Z,4.7
2022-09-21T07:05:12.709Z,4.7
2022-09-21T07:05:59.986Z,4.7
2022-09-21T07:06:47.241Z,4.7
2022-09-21T07:07:34.504Z,4.7
2022-09-21T07:10:20.539Z,4.7
2022-09-21T07:11:08.055Z,4.7
2022-09-21T07:11:55.443Z,4.7
2022-09-21T07:12:42.716Z,4.7
2022-09-21T07:13:29.976Z,4.7
2022-09-21T07:14:17.379Z,4.7
2022-09-21T07:15:04.635Z,4.7
2022-09-21T07:15:53.442Z,4.7
2022-09-21T07:16:40.839Z,4.7
2022-09-21T07:17:28.134Z,4.7
2022-09-21T07:18:15.425Z,4.7
2022-09-21T07:19:10.368Z,4.7
2022-09-21T07:19:58.536Z,7.3
2022-09-21T07:20:45.972Z,7.3
2022-09-21T07:21:33.280Z,7.3
2022-09-21T07:22:20.569Z,7.3
2022-09-21T07:23:08.002Z,7.3
2022-09-21T07:23:55.275Z,7.3
2022-09-21T07:24:42.541Z,7.3
2022-09-21T07:25:29.985Z,7.3
2022-09-21T07:26:17.259Z,7.3
2022-09-21T07:27:04.548Z,7.3
2022-09-21T07:27:51.961Z,7.3
2022-09-21T07:28:39.238Z,7.3
2022-09-21T07:29:26.508Z,7.3
2022-09-21T07:30:13.953Z,7.3
2022-09-21T07:31:01.223Z,7.3
2022-09-21T07:31:48.588Z,7.3
2022-09-21T07:32:35.943Z,7.3
2022-09-21T07:33:23.214Z,7.3
2022-09-21T07:34:10.525Z,7.3
2022-09-21T07:34:57.939Z,7.3
2022-09-21T07:35:45.232Z,7.3
2022-09-21T07:36:32.561Z,7.3
2022-09-21T07:37:19.979Z,7.3
2022-09-21T07:38:07.385Z,7.3
2022-09-21T07:38:54.728Z,7.3
2022-09-21T07:39:42.090Z,7.3
2022-09-21T07:40:29.433Z,7.3
2022-09-21T07:41:16.880Z,7.3
2022-09-21T07:42:04.241Z,7.3
2022-09-21T07:42:51.570Z,7.3
2022-09-21T07:43:38.965Z,7.3
2022-09-21T07:44:26.290Z,7.3
2022-09-21T07:45:13.770Z,7.3
2022-09-21T07:46:01.167Z,7.3
2022-09-21T07:46:48.524Z,7.3
2022-09-21T07:47:35.991Z,7.3
2022-09-21T07:48:23.269Z,7.3
2022-09-21T07:49:11.269Z,7.3
2022-09-21T07:49:58.746Z,7.3
2022-09-21T07:50:46.061Z,7.3
2022-09-21T07:51:33.355Z,7.3
2022-09-21T07:52:20.799Z,7.3
2022-09-21T07:53:08.113Z,7.3
2022-09-21T07:53:55.508Z,7.3
2022-09-21T07:54:42.900Z,7.3
2022-09-21T07:55:30.201Z,7.3
2022-09-21T07:56:17.495Z,7.3
2022-09-21T07:57:05.133Z,7.3
2022-09-21T07:57:52.649Z,7.3
2022-09-21T07:58:39.937Z,7.3
2022-09-21T07:59:27.248Z,7.3
2022-09-21T08:00:14.572Z,7.3
2022-09-21T08:01:01.922Z,7.3
2022-09-21T08:01:49.289Z,7.3
2022-09-21T08:02:36.641Z,7.3
2022-09-21T08:03:23.968Z,7.3
2022-09-21T08:04:11.291Z,7.3
2022-09-21T08:04:58.606Z,7.3
2022-09-21T08:05:45.896Z,7.3
2022-09-21T08:06:33.222Z,7.3
2022-09-21T08:07:20.525Z,7.3
2022-09-21T08:08:07.846Z,7.3
2022-09-21T08:08:57.769Z,7.3
2022-09-21T08:09:45.513Z,7.3
2022-09-21T08:10:33.175Z,7.3
2022-09-21T08:11:20.538Z,7.3
2022-09-21T08:12:07.815Z,7.3
2022-09-21T08:12:55.222Z,7.3
2022-09-21T08:13:42.511Z,7.3
2022-09-21T08:14:29.824Z,7.3
2022-09-21T08:15:43.989Z,7.3
2022-09-21T08:16:14.525Z,7.3
2022-09-21T08:17:02.000Z,7.3
2022-09-21T08:17:49.277Z,7.3
2022-09-21T08:18:36.721Z,7.3
2022-09-21T08:19:24.041Z,15.8
2022-09-21T08:20:11.329Z,15.8
2022-09-21T08:20:58.621Z,15.8
2022-09-21T08:21:46.009Z,15.8
2022-09-21T08:22:33.317Z,15.8
2022-09-21T08:23:20.604Z,15.8
2022-09-21T08:24:08.003Z,15.8
2022-09-21T08:24:55.291Z,15.8
2022-09-21T08:25:42.597Z,15.8
2022-09-21T08:26:29.992Z,15.8
2022-09-21T08:27:17.289Z,15.8
2022-09-21T08:28:09.495Z,15.8
2022-09-21T08:28:57.217Z,15.8
2022-09-21T08:29:44.600Z,15.8
2022-09-21T08:30:31.901Z,15.8
2022-09-21T08:31:19.251Z,15.8
2022-09-21T08:32:06.711Z,15.8
2022-09-21T08:32:54.003Z,15.8
2022-09-21T08:33:41.324Z,15.8
2022-09-21T08:34:28.861Z,15.8
2022-09-21T08:35:16.160Z,15.8
2022-09-21T08:36:03.483Z,15.8
2022-09-21T08:36:55.306Z,15.8
2022-09-21T08:37:43.116Z,15.8
2022-09-21T08:38:30.419Z,15.8
2022-09-21T08:39:17.711Z,15.8
2022-09-21T08:40:05.150Z,15.8
2022-09-21T08:40:52.509Z,15.8
2022-09-21T08:41:39.816Z,15.8
2022-09-21T08:42:27.106Z,15.8
2022-09-21T08:43:14.519Z,15.8
2022-09-21T08:44:01.817Z,15.8
2022-09-21T08:44:49.122Z,15.8
2022-09-21T08:45:36.537Z,15.8
2022-09-21T08:46:24.110Z,15.8
2022-09-21T08:47:11.437Z,15.8
2022-09-21T08:47:58.876Z,15.8
2022-09-21T08:48:46.163Z,15.8
2022-09-21T08:49:33.461Z,15.8
2022-09-21T08:50:20.901Z,15.8
2022-09-21T08:51:08.217Z,15.8
2022-09-21T08:51:55.802Z,15.8
2022-09-21T08:52:45.904Z,15.8
2022-09-21T08:53:34.220Z,15.8
2022-09-21T08:54:21.538Z,15.8
2022-09-21T08:55:08.816Z,15.8
2022-09-21T08:55:56.117Z,15.8
2022-09-21T08:57:03.838Z,15.8
2022-09-21T08:57:40.830Z,15.8
2022-09-21T08:58:28.237Z,15.8
2022-09-21T08:59:15.526Z,15.8
2022-09-21T09:00:02.842Z,15.8
2022-09-21T09:00:50.334Z,15.8
2022-09-21T09:01:37.753Z,15.8
2022-09-21T09:02:25.172Z,15.8
2022-09-21T09:03:12.523Z,15.8
2022-09-21T09:04:02.528Z,15.8
2022-09-21T09:04:51.053Z,15.8
2022-09-21T09:05:38.644Z,15.8
2022-09-21T09:06:26.875Z,15.8
2022-09-21T09:07:14.320Z,15.8
2022-09-21T09:08:01.757Z,15.8
2022-09-21T09:08:49.065Z,15.8
2022-09-21T09:09:36.355Z,15.8
2022-09-21T09:10:23.779Z,15.8
2022-09-21T09:11:11.092Z,15.8
2022-09-21T09:11:58.376Z,15.8
2022-09-21T09:12:45.849Z,15.8
2022-09-21T09:13:33.139Z,15.8
2022-09-21T09:14:20.437Z,15.8
2022-09-21T09:15:07.871Z,15.8
2022-09-21T09:15:55.228Z,15.8
2022-09-21T09:16:42.541Z,15.8
2022-09-21T09:17:29.981Z,15.8
2022-09-21T09:18:17.292Z,15.8
2022-09-21T09:19:04.747Z,15.8
2022-09-21T09:19:52.156Z,21.8
2022-09-21T09:20:39.452Z,21.8
2022-09-21T09:21:31.216Z,21.8
2022-09-21T09:22:18.938Z,21.8
2022-09-21T09:23:06.381Z,21.8
2022-09-21T09:23:53.699Z,21.8
2022-09-21T09:24:40.993Z,21.8
2022-09-21T09:25:28.410Z,21.8
2022-09-21T09:26:15.705Z,21.8
2022-09-21T09:27:03.009Z,21.8
2022-09-21T09:27:50.388Z,21.8
2022-09-21T09:28:37.680Z,21.8
2022-09-21T09:29:24.982Z,21.8
2022-09-21T09:30:12.378Z,21.8
2022-09-21T09:30:59.914Z,21.8
2022-09-21T09:31:47.303Z,21.8
2022-09-21T09:32:34.661Z,21.8
2022-09-21T09:33:21.985Z,21.8
2022-09-21T09:34:09.272Z,21.8
2022-09-21T09:34:56.680Z,21.8
2022-09-21T09:35:43.982Z,21.8
2022-09-21T09:36:56.598Z,21.8
2022-09-21T09:37:28.788Z,21.8
2022-09-21T09:38:16.084Z,21.8
2022-09-21T09:39:03.413Z,21.8
2022-09-21T09:39:50.703Z,21.8
2022-09-21T09:40:38.234Z,21.8
2022-09-21T09:41:25.615Z,21.8
2022-09-21T09:42:12.903Z,21.8
2022-09-21T09:43:04.543Z,21.8
2022-09-21T09:43:52.304Z,21.8
2022-09-21T09:44:39.604Z,21.8
2022-09-21T09:45:26.888Z,21.8
2022-09-21T09:46:14.283Z,21.8
2022-09-21T09:47:01.745Z,21.8
2022-09-21T09:47:49.105Z,21.8
2022-09-21T09:48:36.388Z,21.8
2022-09-21T09:49:23.789Z,21.8
2022-09-21T09:50:11.276Z,21.8
2022-09-21T09:50:58.570Z,21.8
2022-09-21T09:51:45.977Z,21.8
2022-09-21T09:52:33.257Z,21.8
2022-09-21T09:53:20.553Z,21.8
2022-09-21T09:54:10.262Z,21.8
2022-09-21T09:54:57.776Z,21.8
2022-09-21T09:55:45.076Z,21.8
2022-09-21T09:56:32.363Z,21.8
2022-09-21T09:57:20.152Z,21.8
2022-09-21T09:58:07.528Z,21.8
2022-09-21T09:58:54.989Z,21.8
2022-09-21T09:59:42.312Z,21.8
2022-09-21T10:00:29.624Z,21.8
2022-09-21T10:01:16.941Z,21.8
2022-09-21T10:02:04.333Z,21.8
2022-09-21T10:02:51.697Z,21.8
2022-09-21T10:03:39.004Z,21.8
2022-09-21T10:04:26.351Z,21.8
2022-09-21T10:05:13.699Z,21.8
2022-09-21T10:06:01.002Z,21.8
2022-09-21T10:06:48.318Z,21.8
2022-09-21T10:07:35.595Z,21.8
2022-09-21T10:08:22.911Z,21.8
2022-09-21T10:09:10.209Z,21.8
2022-09-21T10:09:57.481Z,21.8
2022-09-21T10:10:44.826Z,21.8
2022-09-21T10:11:32.106Z,21.8
2022-09-21T10:12:19.395Z,21.8
2022-09-21T10:13:06.686Z,21.8
2022-09-21T10:13:54.138Z,21.8
2022-09-21T10:14:41.420Z,21.8
2022-09-21T10:15:28.701Z,21.8
2022-09-21T10:16:16.070Z,21.8
2022-09-21T10:17:03.565Z,21.8
2022-09-21T10:17:50.842Z,21.8
2022-09-21T10:18:38.142Z,21.8
2022-09-21T10:19:25.438Z,21.3
2022-09-21T10:20:12.738Z,21.3
2022-09-21T10:21:00.013Z,21.3
2022-09-21T10:21:51.810Z,21.3
2022-09-21T10:22:39.722Z,21.3
2022-09-21T10:23:27.040Z,21.3
2022-09-21T10:24:14.320Z,21.3
2022-09-21T10:25:01.588Z,21.3
2022-09-21T10:25:49.024Z,21.3
2022-09-21T10:26:36.299Z,21.3
2022-09-21T10:27:23.577Z,21.3
2022-09-21T10:28:11.006Z,21.3
2022-09-21T10:28:58.348Z,21.3
2022-09-21T10:29:45.682Z,21.3
2022-09-21T10:30:33.124Z,21.3
2022-09-21T10:31:20.424Z,21.3
2022-09-21T10:32:12.367Z,21.3
2022-09-21T10:33:01.573Z,21.3
2022-09-21T10:33:48.977Z,21.3
2022-09-21T10:34:36.264Z,21.3
2022-09-21T10:35:23.531Z,21.3
2022-09-21T10:36:10.968Z,21.3
2022-09-21T10:36:58.260Z,21.3
2022-09-21T10:37:45.542Z,21.3
2022-09-21T10:38:32.966Z,21.3
2022-09-21T10:39:20.236Z,21.3
2022-09-21T10:40:07.604Z,21.3
2022-09-21T10:40:54.933Z,21.3
2022-09-21T10:41:42.254Z,21.3
2022-09-21T10:42:29.531Z,21.3
2022-09-21T10:43:16.949Z,21.3
2022-09-21T10:44:04.219Z,21.3
2022-09-21T10:44:51.484Z,21.3
2022-09-21T10:45:38.940Z,21.3
2022-09-21T10:46:26.246Z,21.3
2022-09-21T10:47:16.068Z,21.3
2022-09-21T10:48:04.577Z,21.3
2022-09-21T10:48:51.867Z,21.3
2022-09-21T10:49:39.146Z,21.3
2022-09-21T10:50:26.412Z,21.3
2022-09-21T10:51:13.852Z,21.3
2022-09-21T10:52:01.152Z,21.3
2022-09-21T10:52:48.521Z,21.3
2022-09-21T10:53:35.837Z,21.3
2022-09-21T10:54:23.118Z,21.3
2022-09-21T10:55:10.406Z,21.3
2022-09-21T10:56:14.976Z,21.3
2022-09-21T10:56:55.051Z,21.3
2022-09-21T10:57:42.469Z,21.3
2022-09-21T10:58:29.748Z,21.3
2022-09-21T10:59:17.020Z,21.3
2022-09-21T11:00:04.443Z,21.3
2022-09-21T11:00:51.717Z,21.3
2022-09-21T11:01:39.051Z,21.3
2022-09-21T11:02:26.499Z,21.3
2022-09-21T11:03:13.793Z,21.3
2022-09-21T11:04:01.101Z,21.3
2022-09-21T11:04:48.524Z,21.3
2022-09-21T11:05:35.817Z,21.3
2022-09-21T11:06:23.178Z,21.3
2022-09-21T11:07:10.661Z,21.3
2022-09-21T11:07:58.029Z,21.3
2022-09-21T11:08:45.500Z,21.3
2022-09-21T11:09:32.783Z,21.3
2022-09-21T11:10:20.109Z,21.3
2022-09-21T11:11:07.680Z,21.3
2022-09-21T11:11:54.969Z,21.3
2022-09-21T11:12:42.269Z,21.3
2022-09-21T11:13:29.572Z,21.3
2022-09-21T11:14:16.993Z,21.3
2022-09-21T11:15:04.320Z,21.3
2022-09-21T11:15:51.860Z,21.3
2022-09-21T11:16:39.241Z,21.3
2022-09-21T11:17:26.538Z,21.3
2022-09-21T11:18:13.813Z,21.3
2022-09-21T11:19:01.236Z,21.3
2022-09-21T11:19:48.517Z,13.2
2022-09-21T11:20:35.793Z,13.2
2022-09-21T11:21:23.717Z,13.2
2022-09-21T11:22:11.207Z,13.2
2022-09-21T11:22:58.488Z,13.2
2022-09-21T11:23:45.765Z,13.2
2022-09-21T11:24:33.080Z,13.2
2022-09-21T11:25:20.367Z,13.2
2022-09-21T11:26:07.644Z,13.2
2022-09-21T11:26:55.074Z,13.2
2022-09-21T11:27:42.349Z,13.2
2022-09-21T11:28:29.633Z,13.2
2022-09-21T11:29:17.135Z,13.2
2022-09-21T11:30:04.454Z,13.2
2022-09-21T11:30:51.764Z,13.2
2022-09-21T11:31:39.190Z,13.2
2022-09-21T11:32:26.458Z,13.2
2022-09-21T11:33:13.737Z,13.2
2022-09-21T11:34:01.161Z,13.2
2022-09-21T11:34:48.432Z,13.2
2022-09-21T11:35:35.700Z,13.2
2022-09-21T11:36:23.194Z,13.2
2022-09-21T11:37:10.505Z,13.2
2022-09-21T11:37:57.788Z,13.2
2022-09-21T11:38:45.223Z,13.2
2022-09-21T11:39:32.485Z,13.2
2022-09-21T11:40:19.818Z,13.2
2022-09-21T11:41:07.182Z,13.2
2022-09-21T11:41:54.465Z,13.2
2022-09-21T11:42:41.732Z,13.2
2022-09-21T11:43:29.180Z,13.2
2022-09-21T11:44:19.065Z,13.2
2022-09-21T11:45:06.958Z,13.2
2022-09-21T11:45:54.314Z,13.2
2022-09-21T11:46:41.689Z,13.2
2022-09-21T11:47:28.965Z,13.2
2022-09-21T11:48:16.291Z,13.2
2022-09-21T11:49:03.661Z,13.2
2022-09-21T11:49:58.970Z,13.2
2022-09-21T11:50:48.330Z,13.2
2022-09-21T11:51:35.687Z,13.2
2022-09-21T11:52:22.967Z,13.2
2022-09-21T11:53:10.243Z,13.2
2022-09-21T11:53:57.666Z,13.2
2022-09-21T11:54:44.925Z,13.2
2022-09-21T11:55:32.201Z,13.2
2022-09-21T11:56:19.587Z,13.2
2022-09-21T11:57:06.862Z,13.2
2022-09-21T11:57:55.145Z,13.2
2022-09-21T11:58:42.609Z,13.2
2022-09-21T11:59:29.953Z,13.2
2022-09-21T12:00:17.296Z,13.2
2022-09-21T12:01:04.657Z,13.2
2022-09-21T12:01:52.172Z,13.2
2022-09-21T12:02:39.600Z,13.2
2022-09-21T12:03:27.012Z,13.2
2022-09-21T12:04:14.389Z,13.2
2022-09-21T12:05:01.694Z,13.2
2022-09-21T12:05:49.028Z,13.2
2022-09-21T12:06:36.419Z,13.2
2022-09-21T12:07:23.717Z,13.2
2022-09-21T12:08:10.981Z,13.2
2022-09-21T12:08:58.438Z,13.2
2022-09-21T12:09:45.724Z,13.2
2022-09-21T12:10:33.020Z,13.2
2022-09-21T12:11:20.890Z,13.2
2022-09-21T12:12:08.432Z,13.2
2022-09-21T12:12:55.705Z,13.2
2022-09-21T12:13:42.992Z,13.2
2022-09-21T12:14:30.320Z,13.2
2022-09-21T12:15:17.671Z,13.2
2022-09-21T12:16:05.017Z,13.2
2022-09-21T12:16:52.967Z,13.2
2022-09-21T12:17:40.384Z,13.2
2022-09-21T12:18:27.650Z,13.2
2022-09-21T12:19:14.927Z,13.2
2022-09-21T12:20:02.305Z,7.5
2022-09-21T12:20:49.577Z,7.5
2022-09-21T12:21:36.869Z,7.5
2022-09-21T12:22:24.298Z,7.5
2022-09-21T12:23:11.578Z,7.5
2022-09-21T12:23:58.874Z,7.5
2022-09-21T12:24:46.429Z,7.5
2022-09-21T12:25:33.695Z,7.5
2022-09-21T12:26:20.979Z,7.5
2022-09-21T12:27:08.384Z,7.5
2022-09-21T12:27:55.664Z,7.5
2022-09-21T12:28:42.944Z,7.5
2022-09-21T12:29:30.360Z,7.5
2022-09-21T12:30:17.629Z,7.5
2022-09-21T12:31:04.953Z,7.5
2022-09-21T12:31:52.341Z,7.5
2022-09-21T12:32:39.650Z,7.5
2022-09-21T12:33:26.948Z,7.5
2022-09-21T12:34:14.368Z,7.5
2022-09-21T12:35:01.660Z,7.5
2022-09-21T12:35:48.984Z,7.5
2022-09-21T12:36:39.480Z,7.5
2022-09-21T12:37:28.987Z,7.5
2022-09-21T12:38:16.399Z,7.5
2022-09-21T12:39:03.672Z,7.5
2022-09-21T12:39:50.950Z,7.5
2022-09-21T12:40:38.436Z,7.5
2022-09-21T12:41:26.204Z,7.5
2022-09-21T12:42:13.476Z,7.5
2022-09-21T12:43:00.860Z,7.5
2022-09-21T12:43:48.145Z,7.5
2022-09-21T12:44:35.422Z,7.5
2022-09-21T12:45:22.813Z,7.5
2022-09-21T12:46:10.091Z,7.5
2022-09-21T12:46:57.390Z,7.5
2022-09-21T12:47:44.761Z,7.5
2022-09-21T12:48:32.029Z,7.5
2022-09-21T12:49:19.310Z,7.5
2022-09-21T12:50:06.733Z,7.5
2022-09-21T12:50:54.017Z,7.5
2022-09-21T12:51:41.309Z,7.5
2022-09-21T12:52:28.720Z,7.5
2022-09-21T12:53:15.989Z,7.5
2022-09-21T12:54:03.257Z,7.5
2022-09-21T12:54:50.727Z,7.5
2022-09-21T12:55:37.998Z,7.5
2022-09-21T12:56:25.276Z,7.5
2022-09-21T12:57:29.755Z,7.5
2022-09-21T12:58:15.493Z,7.5
2022-09-21T12:59:03.300Z,7.5
2022-09-21T12:59:50.695Z,7.5
2022-09-21T13:00:37.970Z,7.5
2022-09-21T13:01:25.570Z,7.5
2022-09-21T13:02:13.147Z,7.5
2022-09-21T13:03:00.682Z,7.5
2022-09-21T13:03:47.980Z,7.5
2022-09-21T13:04:35.300Z,7.5
2022-09-21T13:05:22.719Z,7.5
2022-09-21T13:06:09.983Z,7.5
2022-09-21T13:06:57.292Z,7.5
2022-09-21T13:07:44.677Z,7.5
2022-09-21T13:08:31.983Z,7.5
2022-09-21T13:09:19.261Z,7.5
2022-09-21T13:10:06.915Z,7.5
2022-09-21T13:10:55.069Z,7.5
2022-09-21T13:11:42.549Z,7.5
2022-09-21T13:12:29.987Z,7.5
2022-09-21T13:13:17.260Z,7.5
2022-09-21T13:14:04.532Z,7.5
2022-09-21T13:14:51.984Z,7.5
2022-09-21T13:15:39.324Z,7.5
2022-09-21T13:16:26.677Z,7.5
2022-09-21T13:17:14.022Z,7.5
2022-09-21T13:18:01.283Z,7.5
2022-09-21T13:18:48.555Z,7.5
2022-09-21T13:19:35.993Z,6.3
2022-09-21T13:20:23.274Z,6.3
2022-09-21T13:21:10.553Z,6.3
2022-09-21T13:21:58.464Z,6.3
2022-09-21T13:22:45.973Z,6.3
2022-09-21T13:23:33.256Z,6.3
2022-09-21T13:24:20.531Z,6.3
2022-09-21T13:25:07.830Z,6.3
2022-09-21T13:25:55.100Z,6.3
2022-09-21T13:26:42.386Z,6.3
2022-09-21T13:27:29.791Z,6.3
2022-09-21T13:28:17.053Z,6.3
2022-09-21T13:29:04.320Z,6.3
2022-09-21T13:29:51.750Z,6.3
2022-09-21T13:30:39.032Z,6.3
2022-09-21T13:31:41.909Z,6.3
2022-09-21T13:32:23.664Z,6.3
2022-09-21T13:33:11.010Z,6.3
2022-09-21T13:33:58.324Z,6.3
2022-09-21T13:34:45.643Z,6.3
2022-09-21T13:35:33.049Z,6.3
2022-09-21T13:36:20.324Z,6.3
2022-09-21T13:37:07.596Z,6.3
2022-09-21T13:37:55.034Z,6.3
2022-09-21T13:38:42.318Z,6.3
2022-09-21T13:39:29.588Z,6.3
2022-09-21T13:40:17.090Z,6.3
2022-09-21T13:41:04.403Z,6.3
2022-09-21T13:42:02.829Z,6.3
2022-09-21T13:42:48.929Z,6.3
2022-09-21T13:44:28.513Z,6.3
2022-09-21T13:45:15.779Z,6.3
2022-09-21T13:46:03.150Z,6.3
2022-09-21T13:46:50.481Z,6.3
2022-09-21T13:47:37.894Z,6.3
2022-09-21T13:48:25.156Z,6.3
2022-09-21T13:49:12.431Z,6.3
2022-09-21T13:50:00.994Z,6.3
2022-09-21T13:50:48.337Z,6.3
2022-09-21T13:51:35.849Z,6.3
2022-09-21T13:52:23.123Z,6.3
2022-09-21T13:53:10.810Z,6.3
2022-09-21T13:53:58.104Z,6.3
2022-09-21T13:54:45.698Z,6.3
2022-09-21T13:55:32.985Z,6.3
2022-09-21T13:56:20.282Z,6.3
2022-09-21T13:57:09.344Z,6.3
2022-09-21T13:58:44.065Z,6.3
2022-09-21T13:59:31.350Z,6.3
2022-09-21T14:00:18.629Z,6.3
2022-09-21T14:01:06.172Z,6.3
2022-09-21T14:01:54.152Z,6.3
2022-09-21T14:02:41.549Z,6.3
2022-09-21T14:03:28.837Z,6.3
2022-09-21T14:04:16.264Z,6.3
2022-09-21T14:05:03.533Z,6.3
2022-09-21T14:05:50.820Z,6.3
2022-09-21T14:06:38.240Z,6.3
2022-09-21T14:07:26.050Z,6.3
2022-09-21T14:08:13.317Z,6.3
2022-09-21T14:09:00.723Z,6.3
2022-09-21T14:09:47.995Z,6.3
2022-09-21T14:10:35.255Z,6.3
2022-09-21T14:11:22.669Z,6.3
2022-09-21T14:12:09.951Z,6.3
2022-09-21T14:12:57.227Z,6.3
2022-09-21T14:13:44.624Z,6.3
2022-09-21T14:14:32.022Z,6.3
2022-09-21T14:15:19.309Z,6.3
2022-09-21T14:16:06.717Z,6.3
2022-09-21T14:16:54.367Z,6.3
2022-09-21T14:17:41.795Z,6.3
2022-09-21T14:18:29.117Z,6.3
2022-09-21T14:19:16.401Z,6.3
2022-09-21T14:20:03.679Z,5.1
2022-09-21T14:20:51.103Z,5.1
2022-09-21T14:21:38.379Z,5.1
2022-09-21T14:22:25.640Z,5.1
2022-09-21T14:23:13.079Z,5.1
2022-09-21T14:24:00.585Z,5.1
2022-09-21T14:24:47.851Z,5.1
2022-09-21T14:25:35.301Z,5.1
2022-09-21T14:26:24.844Z,5.1
2022-09-21T14:27:13.781Z,5.1
2022-09-21T14:28:01.210Z,5.1
2022-09-21T14:28:48.519Z,5.1
2022-09-21T14:29:35.784Z,5.1
2022-09-21T14:30:23.240Z,5.1
2022-09-21T14:31:10.758Z,5.1
2022-09-21T14:31:58.077Z,5.1
2022-09-21T14:32:45.472Z,5.1
2022-09-21T14:33:32.752Z,5.1
2022-09-21T14:34:23.244Z,5.1
2022-09-21T14:35:10.743Z,5.1
2022-09-21T14:35:58.169Z,5.1
2022-09-21T14:36:45.445Z,5.1
2022-09-21T14:37:32.716Z,5.1
2022-09-21T14:38:20.113Z,5.1
2022-09-21T14:39:07.380Z,5.1
2022-09-21T14:39:54.669Z,5.1
2022-09-21T14:40:42.072Z,5.1
2022-09-21T14:41:29.369Z,5.1
2022-09-21T14:42:16.667Z,5.1
2022-09-21T14:43:04.031Z,5.1
2022-09-21T14:43:51.302Z,5.1
2022-09-21T14:44:38.589Z,5.1